| Station | Date | Time | Temp 5ft (°F) | Temp 30ft (°F) | Inversion (°F) | RH (%) | Dew Pt (°F) | Wind Spd (mph) | Wind Gust (mph) | Solar Rad (W/m2) | Daily Min Temp (°F) | Daily Max Temp (°F) | Daily Rain (In) | Daily ETo (in) |
|---|---|---|---|---|---|---|---|---|---|---|---|---|---|---|
| Shandon ETo (SLO-1) | 9/2/26 | 2130 | 63.7 8.5 | 64.1 8.6 | 0.4 | 69 13 | 53.4 3.5 | 1.6 1.5 | 4.8 3.4 | 0 0 | 44.5 5.8 | 81.4 5.2 | 0.00 | 0.182 0.007 |
| Creston Rd (SLO-2) | 9/2/26 | 2130 | 61.2 7.1 | 62.1 6.5 | 1.0 | 73 10 | 52.6 3.5 | 0.0 0.0 | 0.0 0.0 | 0 0 | 43.9 4.0 | 82.2 5.6 | 0.00 | 0.184 0.005 |
| NE Paso Robles (SLO-3) | 9/2/26 | 2130 | 63.5 8.3 | 64.4 6.9 | 0.9 | 71 12 | 53.8 3.7 | 0.1 0.1 | 4.1 4.1 | 0 0 | 44.0 4.5 | 85.7 6.5 | 0.00 | 0.193 0.008 |
| Cross Canyon Rd (SLO-4) | 9/2/26 | 2130 | 65.3 7.7 | 65.3 6.9 | -0.1 | 67 12 | 54.1 2.9 | 4.2 0.5 | 8.1 1.7 | 0 0 | 44.3 3.2 | 84.9 5.1 | 0.00 | 0.183 0.004 |
| Willow Creek (SLO-5) | 9/2/26 | 2130 | 55.0 6.1 | 56.9 6.9 | 1.9 | 81 7 | 49.4 3.7 | 0.0 0.0 | 0.0 0.0 | 0 0 | 41.5 1.1 | 79.5 8.0 | 0.00 | 0.178 0.018 |
| Shell Creek Rd (SLO-6) | 9/2/26 | 2130 | 62.7 11.0 | 64.1 9.4 | 1.4 | 69 13 | 52.3 6.0 | 0.6 1.3 | 3.4 0.7 | 0 0 | 39.6 11.0 | 83.5 1.1 | 0.00 | 0.196 0.004 |
| South Shandon (SLO-7) | 9/2/26 | 2130 | 62.7 10.0 | 62.7 9.1 | 0.1 | 71 13 | 53.1 5.2 | 0.0 0.3 | 0.0 2.1 | 0 0 | 40.2 9.6 | 84.0 3.9 | 0.00 | 0.190 0.007 |
| South Creston (SLO-8) | 9/2/26 | 2130 | 60.4 6.5 | 62.5 7.7 | 2.0 | 74 11 | 52.3 2.7 | 0.0 0.0 | 0.0 0.0 | 0 0 | 42.0 11.7 | 82.7 4.7 | 0.00 | 0.182 0.001 |
| Pozo Rd (SLO-9) | 9/2/26 | 2130 | 57.8 8.7 | 60.0 8.4 | 2.2 | 76 9 | 50.5 5.4 | 0.5 0.5 | 3.4 2.0 | 0 0 | 34.9 10.9 | 79.1 4.9 | 0.00 | 0.172 0.008 |
| Experimental Station (SLO-10) | 9/2/26 | 2130 | 64.5 6.3 | 64.8 5.6 | 0.3 | 68 3 | 53.9 5.0 | 4.4 4.0 | 8.8 3.4 | 0 0 | 45.3 6.3 | 83.8 6.1 | 0.00 | 0.174 0.004 |
| Vineyard Drive (SLO-11) | 9/2/26 | 2130 | 54.9 5.7 | 57.5 5.8 | 2.6 | 78 6 | 48.3 3.5 | 0.0 0.0 | 0.0 0.0 | 0 0 | 38.8 1.8 | 81.1 8.8 | 0.00 | 0.170 0.013 |
| Von Dollen Road (SLO-12) | 9/2/26 | 2130 | 62.3 7.6 | 64.2 7.7 | 1.9 | 59 9 | 47.7 3.2 | 0.0 1.1 | 1.4 1.3 | 0 0 | 46.4 1.7 | 82.7 6.2 | 0.00 | 0.184 0.007 |
| Templeton Gap West (SLO-13) | 9/2/26 | 2130 | 61.2 7.5 | 62.3 7.3 | 1.0 | 71 18 | 51.7 1.1 | 1.6 1.6 | 4.8 3.0 | 0 0 | 38.5 7.2 | 82.3 7.3 | 0.00 | 0.181 0.012 |
| Orcutt Road (SLO-14) | 9/2/26 | 2130 | 61.5 2.1 | 61.3 2.2 | -0.1 | 90 5 | 58.4 3.5 | 0.6 1.6 | 4.8 1.0 | 0 0 | 46.4 3.6 | 78.1 2.8 | 0.00 | 0.177 0.005 |
| Tiffany Ranch Rd (SLO-15) | 9/2/26 | 2130 | 61.8 2.1 | 61.9 2.2 | 0.1 | 91 5 | 59.0 3.7 | 0.0 0.0 | 0.0 0.0 | 0 0 | 43.7 3.6 | 80.9 5.2 | 0.00 | 0.164 0.002 |
| Chimney Rock Rd (SLO-16) | 9/2/26 | 2130 | 58.5 6.2 | 58.8 6.2 | 0.3 | 71 7 | 49.2 3.6 | 0.8 0.8 | 3.4 3.4 | 0 0 | 44.0 1.4 | 79.7 5.3 | 0.00 | 0.183 0.020 |
| Nipomo Mesa (SLO-17) | 9/2/26 | 2130 | 62.2 2.4 | 62.4 2.4 | 0.2 | 86 5 | 58.0 3.9 | 0.6 3.2 | 2.4 7.4 | 0 0 | 41.8 6.0 | 76.2 3.6 | 0.00 | 0.171 0.004 |
| Morro Creek (SLO-18) | 9/2/26 | 2130 | 57.3 1.6 | 58.4 1.6 | 1.1 | 96 2 | 56.1 2.1 | 0.0 0.0 | 0.0 0.0 | 0 0 | 46.4 5.1 | 70.5 2.4 | 0.00 | 0.140 0.008 |
| Paso Robles Airport ETo | 9/2/26 | 2130 | 64.9 9.2 | 65.5 8.9 | 0.6 | 70 11 | 54.8 5.0 | 4.6 4.6 | 8.1 8.1 | 0 0 | 43.8 2.2 | 81.6 6.0 | 0.00 | 0.178 0.002 |
| West Shandon (SLO-20) | 9/2/26 | 2130 | 63.4 8.4 | 64.4 8.6 | 1.0 | 71 11 | 53.7 4.2 | 0.0 0.0 | 0.0 0.0 | 0 0 | 43.9 5.9 | 84.4 4.6 | 0.00 | 0.191 0.008 |
| West San Miguel (SLO-21) | 9/2/26 | 2130 | 64.3 2.5 | - | - | 60 5 | 50.2 4.7 | 6.3 0.5 | 11.0 0.6 | 0 0 | 45.9 0.2 | 84.0 3.9 | 0.00 | 0.183 0.006 |
| Adelaida Road (SLO-22) | 9/2/26 | 2130 | 58.7 0.5 | 61.7 3.0 | 3.0 | 71 10 | 49.2 4.7 | 0.7 2.1 | 3.2 5.6 | 0 0 | 43.0 7.2 | 81.1 6.9 | 0.00 | 0.179 0.018 |
| East Whitley Gardens (SLO-23) | 9/2/26 | 2130 | 63.2 7.8 | 63.8 6.8 | 0.6 | 64 15 | 50.6 1.9 | 0.5 0.5 | 4.3 2.2 | 0 0 | 45.2 2.5 | 82.5 5.9 | 0.00 | 0.194 0.008 |
| Estrella Road (SLO-24) | 9/2/26 | 2130 | 63.6 6.4 | - | - | 67 9 | 52.6 2.7 | 0.0 2.5 | 0.0 4.9 | 0 0 | 43.8 2.7 | 83.2 5.9 | 0.00 | 0.187 0.001 |
| Camatta Creek (SLO-25) | 9/2/26 | 2115 | 63.0 7.9 | - | - | 66 12 | 51.4 3.3 | 0.0 1.1 | 0.0 4.3 | 0 0 | 42.4 7.5 | 81.7 3.4 | 0.00 | 0.181 0.003 |
| East-Shandon (SLO-26) | 9/2/26 | 2130 | 63.1 10.6 | - | - | 67 16 | 51.8 4.5 | 0.4 0.0 | 3.2 1.1 | 0 0 | 41.5 7.4 | 82.7 4.5 | 0.00 | 0.192 0.004 |
| Templeton East (SLO-27) | 9/2/26 | 2130 | 63.0 8.0 | - | - | 65 17 | 51.1 1.5 | 3.1 2.6 | 6.5 3.9 | 0 0 | 42.5 7.2 | 81.0 6.5 | 0.00 | 0.179 0.008 |
| Ground Squirrel Hollow (SLO-28) | 9/2/26 | 2130 | 62.6 7.3 | - | - | 65 14 | 50.8 1.7 | 5.5 0.6 | 11.6 2.8 | 0 0 | 46.7 4.0 | 82.1 6.3 | 0.00 | 0.232 0.049 |
| East Paso Robles (SLO-29) | 9/2/26 | 2130 | 63.1 6.8 | - | - | 66 11 | 51.8 2.3 | 4.7 0.2 | 7.1 1.1 | 0 0 | 45.4 5.0 | 81.1 6.4 | 0.00 | 0.191 0.008 |
| Max | 65.3 | 65.5 | 3.0 | 96 | 59.0 | 6.3 | 11.6 | 0 | 46.7 | 85.7 | 0.00 | 0.232 | ||
| Avg | 61.7 | 62.2 | 1.0 | 72 | 52.5 | 1.4 | 3.6 | 0 | - | - | - | - | ||
| Min | 54.9 | 56.9 | -0.1 | 59 | 47.7 | 0.0 | 0.0 | 0 | 34.9 | 70.5 | 0.00 | 0.140 |
| Station | Date | Daily Max Temp 5ft (°F) | Time of Max Temp | Daily Min Temp 5ft (°F) | Time of Min Temp | Daily Rain (In) | Month Precip (In) | Season Precip (In) | Wind Spd (mph) | Daily Max Wind (mph) | Time of Max Wind | Dew Pt (°F) | Daily Max RH (%) | Daily Min RH (%) | Max 1 Min Rain (In) | Max 1 Min Rain Time | Max 15 Min Rain (In) | Max 15 Min Precip Time | Max 60 Min Rain (In) | Max 60 Min Rain Time | Daily Max Temp 30ft (°F) | Daily Min Temp 30ft (°F) | Max Inversion (°F) | Max Inversion Time | Min Inversion (°F) | Min Inversion Time | Daily Solar Rad (Cal/cm2) | MinBV Day (V) |
|---|---|---|---|---|---|---|---|---|---|---|---|---|---|---|---|---|---|---|---|---|---|---|---|---|---|---|---|---|
| Shandon ETo (SLO-1) | 9/1/26 | 76.2 | 1426 | 48.2 | 0007 | 0.00 | 0.00 | 0.05 | 4.5 | 20.2 | 1443 | 49.7 | 94 | 37 | - | - | - | - | - | - | 77.2 | 48.6 | 5.4 | 0905 | -3.9 | 1450 | 549 | 12.4 |
| Creston Rd (SLO-2) | 9/1/26 | 76.6 | 1339 | 47.7 | 2313 | 0.00 | 0.00 | 0.02 | 3.0 | 18.5 | 1443 | 49.1 | 96 | 36 | - | - | - | - | - | - | 75.1 | 49.9 | 5.1 | 0101 | -6.4 | 1351 | 580 | 12.4 |
| NE Paso Robles (SLO-3) | 9/1/26 | 79.2 | 1411 | 47.1 | 0051 | 0.00 | 0.00 | 0.01 | 3.2 | 18.5 | 1757 | 49.9 | 98 | 32 | - | - | - | - | - | - | 78.3 | 49.3 | 4.1 | 2148 | -6.9 | 1339 | 566 | 12.3 |
| Cross Canyon Rd (SLO-4) | 9/1/26 | 79.8 | 1546 | 47.5 | 0301 | 0.00 | 0.00 | 0.00 | 3.0 | 17.2 | 1427 | 49.3 | 97 | 23 | - | - | - | - | - | - | 78.8 | 48.9 | 5.9 | 0009 | -6.0 | 1445 | 549 | 12.4 |
| Willow Creek (SLO-5) | 9/1/26 | 71.6 | 1300 | 42.6 | 0157 | 0.00 | 0.00 | 0.00 | 2.2 | 14.8 | 1618 | 47.9 | 96 | 41 | - | - | - | - | - | - | 71.7 | 43.7 | 3.9 | 2308 | -5.1 | 1106 | 568 | 12.4 |
| Shell Creek Rd (SLO-6) | 9/1/26 | 82.4 | 1407 | 43.5 | 0101 | 0.00 | 0.00 | 0.00 | 4.3 | 17.5 | 1844 | 48.2 | 93 | 30 | - | - | - | - | - | - | 81.8 | 45.0 | 7.5 | 2257 | -5.4 | 1249 | 583 | 12.4 |
| South Shandon (SLO-7) | 9/1/26 | 80.1 | 1413 | 44.6 | 0046 | 0.00 | 0.00 | 0.02 | 4.0 | 18.2 | 1459 | 48.2 | 91 | 33 | - | - | - | - | - | - | 80.1 | 47.6 | 6.2 | 0059 | -6.5 | 1343 | 559 | 12.3 |
| South Creston (SLO-8) | 9/1/26 | 78.0 | 1332 | 48.1 | 0050 | 0.00 | 0.00 | 0.00 | 3.8 | 19.5 | 1439 | 49.6 | 92 | 33 | - | - | - | - | - | - | 77.4 | 48.9 | 2.7 | 0103 | -5.5 | 1109 | 570 | 12.4 |
| Pozo Rd (SLO-9) | 9/1/26 | 74.2 | 1337 | 40.0 | 0059 | 0.00 | 0.00 | 0.02 | 3.3 | 16.2 | 1310 | 47.3 | 93 | 37 | - | - | - | - | - | - | 73.4 | 42.1 | 5.0 | 2342 | -5.9 | 1441 | 551 | 12.4 |
| Experimental Station (SLO-10) | 9/1/26 | 77.7 | 1445 | 50.0 | 0059 | 0.00 | 0.00 | 0.00 | 2.5 | 20.2 | 1758 | 48.8 | 91 | 28 | - | - | - | - | - | - | 77.9 | 50.5 | 2.8 | 2324 | -6.0 | 1140 | 538 | 12.3 |
| Vineyard Drive (SLO-11) | 9/1/26 | 72.3 | 1431 | 40.6 | 0206 | 0.00 | 0.00 | 0.00 | 1.5 | 15.2 | 1311 | 47.8 | 95 | 40 | - | - | - | - | - | - | 73.2 | 42.6 | 5.5 | 0205 | -5.6 | 1333 | 551 | 12.4 |
| Von Dollen Road (SLO-12) | 9/1/26 | 76.5 | 1446 | 48.1 | 0316 | 0.00 | 0.00 | 0.01 | 2.9 | 15.2 | 1649 | 48.2 | 87 | 32 | - | - | - | - | - | - | 77.7 | 50.2 | 4.7 | 0036 | -6.2 | 1318 | 572 | 12.4 |
| Templeton Gap West (SLO-13) | 9/1/26 | 75.0 | 1253 | 42.3 | 0034 | 0.00 | 0.00 | 0.00 | 2.6 | 17.5 | 1409 | 49.7 | 98 | 39 | - | - | - | - | - | - | 73.8 | 45.8 | 6.7 | 2241 | -7.4 | 1300 | 565 | 12.4 |
| Orcutt Road (SLO-14) | 9/1/26 | 75.4 | 1346 | 50.0 | 0101 | 0.00 | 0.00 | 0.01 | 3.0 | 15.8 | 1402 | 51.8 | 93 | 43 | - | - | - | - | - | - | 74.6 | 51.9 | 4.4 | 2253 | -5.4 | 1451 | 569 | 12.4 |
| Tiffany Ranch Rd (SLO-15) | 9/1/26 | 75.7 | 1417 | 47.3 | 0120 | 0.00 | 0.00 | 0.00 | 0.0 | 0.0 | 0101 | 52.2 | 95 | 42 | - | - | - | - | - | - | 73.7 | 49.6 | 4.4 | 2240 | -6.4 | 0903 | 598 | 12.4 |
| Chimney Rock Rd (SLO-16) | 9/1/26 | 74.3 | 1529 | 45.5 | 0250 | 0.00 | 0.00 | 0.02 | 1.7 | 13.2 | 1358 | 47.5 | 96 | 35 | - | - | - | - | - | - | 75.0 | 46.2 | 4.1 | 0204 | -6.5 | 1442 | 560 | 12.2 |
| Nipomo Mesa (SLO-17) | 9/1/26 | 72.6 | 1117 | 47.8 | 0707 | 0.00 | 0.00 | 0.02 | 2.8 | 11.5 | 1421 | 52.2 | 92 | 50 | - | - | - | - | - | - | 71.4 | 50.1 | 7.0 | 2316 | -6.8 | 0856 | 578 | 12.4 |
| Morro Creek (SLO-18) | 9/1/26 | 68.0 | 1245 | 49.8 | 0051 | 0.00 | 0.00 | 0.01 | 2.3 | 15.5 | 1408 | 54.6 | 100 | 60 | - | - | - | - | - | - | 67.8 | 51.1 | 4.1 | 2355 | -4.7 | 1129 | 570 | 12.4 |
| Paso Robles Airport ETo | 9/1/26 | 75.6 | 1511 | 46.0 | 0339 | 0.01 | 0.01 | 0.04 | 2.9 | 18.5 | 1707 | 49.2 | 93 | 26 | 0.01 | 1423 | 0.01 | 1437 | 0.01 | 1522 | 76.8 | 48.1 | 4.3 | 0314 | -3.3 | 1449 | 566 | 12.4 |
| West Shandon (SLO-20) | 9/1/26 | 79.8 | 1416 | 47.9 | 0059 | 0.00 | 0.00 | 0.06 | 3.8 | 20.5 | 1434 | 49.5 | 91 | 34 | - | - | - | - | - | - | 79.1 | 48.4 | 5.3 | 2254 | -5.7 | 1448 | 542 | 12.4 |
| West San Miguel (SLO-21) | 9/1/26 | 80.1 | 1509 | 46.0 | 0253 | 0.00 | 0.00 | 0.00 | 3.3 | 16.6 | 1419 | 45.7 | 95 | 11 | - | - | - | - | - | - | - | - | - | 0101 | - | 0101 | 535 | 12.3 |
| Adelaida Road (SLO-22) | 9/1/26 | 74.2 | 1537 | 50.2 | 0300 | 0.00 | 0.00 | 0.00 | 2.8 | 13.3 | 1337 | 45.8 | 95 | 17 | - | - | - | - | - | - | 73.4 | 50.4 | 3.1 | 0059 | -3.2 | 1356 | 552 | 12.5 |
| East Whitley Gardens (SLO-23) | 9/1/26 | 76.6 | 1410 | 47.7 | 0245 | 0.00 | 0.00 | 0.01 | 3.3 | 16.6 | 1445 | 46.7 | 96 | 28 | - | - | - | - | - | - | 75.5 | 50.3 | 4.7 | 2151 | -3.7 | 1420 | 592 | 12.4 |
| Estrella Road (SLO-24) | 9/1/26 | 77.3 | 1410 | 46.4 | 0406 | 0.00 | 0.00 | 0.01 | 3.1 | 16.0 | 1503 | 47.0 | 93 | 23 | - | - | - | - | - | - | - | - | - | 0059 | - | 0059 | 584 | 12.5 |
| Camatta Creek (SLO-25) | 9/1/26 | 78.3 | 1426 | 46.4 | 0058 | 0.00 | 0.00 | 0.02 | 3.8 | 19.4 | 1508 | 46.7 | 97 | 29 | - | - | - | - | - | - | - | - | - | - | - | - | 539 | 12.4 |
| East-Shandon (SLO-26) | 9/1/26 | 78.2 | 1436 | 45.8 | 2314 | 0.00 | 0.00 | 0.02 | 4.0 | 19.4 | 1449 | 46.6 | 96 | 30 | - | - | - | - | - | - | - | - | - | - | - | - | 585 | 12.5 |
| Templeton East (SLO-27) | 9/1/26 | 74.6 | 1255 | 48.6 | 0055 | 0.00 | 0.00 | 0.00 | 2.2 | 16.6 | 1350 | 48.8 | 96 | 34 | - | - | - | - | - | - | - | - | - | 0101 | - | 0101 | 586 | 12.5 |
| Ground Squirrel Hollow (SLO-28) | 9/1/26 | 75.8 | 1406 | 50.2 | 0045 | 0.00 | 0.00 | 0.00 | 3.8 | 18.8 | 1652 | 47.5 | 94 | 29 | - | - | - | - | - | - | - | - | - | 0101 | - | 0101 | 611 | 12.5 |
| East Paso Robles (SLO-29) | 9/1/26 | 74.7 | 1351 | 49.4 | 0042 | 0.00 | 0.00 | 0.01 | 4.5 | 20.5 | 1746 | 47.9 | 95 | 31 | - | - | - | - | - | - | - | - | - | 0101 | - | 0101 | 576 | 12.5 |
| Max | 82.4 | - | 50.2 | - | 0.01 | 0.01 | 0.06 | 4.5 | 20.5 | - | 54.6 | 100 | 60 | - | - | - | - | - | - | 81.8 | 51.9 | 7.5 | - | -3.2 | - | 611 | 12.5 | |
| Avg | - | - | - | - | - | - | - | 3.0 | - | - | 48.7 | - | - | - | - | - | - | - | - | - | - | - | - | - | - | - | - | |
| Min | 68.0 | - | 40.0 | - | 0.00 | 0.00 | 0.00 | 0.0 | 0.0 | - | 45.7 | 87 | 11 | - | - | - | - | - | - | 67.8 | 42.1 | 2.7 | - | -7.4 | - | 535 | 12.2 |
| Station | Date | Daily ETo (in) | 7 Day ETo (in) | Hrs 70-85F (hrs) | Hrs > 95F (hrs) | Powdery Mildew Stress (pts) | GDDs (DL) | GDDs (Mx/Mn) | Seas GDDs (DL) | Seas GDDs (Smpl) | Hrs <= 32F (hrs) | Hrs <= 28F (hrs) | Chilling <=45F (hrs) | Chill Hrs 32-45F (hrs) | Utah Chilling (Units) | Chill Portions |
|---|---|---|---|---|---|---|---|---|---|---|---|---|---|---|---|---|
| Shandon ETo (SLO-1) | 9/1/26 | 0.175 | 1.26 | 4.94 | 0.00 | 0 | 10.3 | 12.2 | 2,630 | 2,684 | 0.0 | 0.0 | 0.0 | 0.0 | 1.5 | - |
| Creston Rd (SLO-2) | 9/1/26 | 0.179 | 1.22 | 4.88 | 0.00 | 10 | 10.3 | 12.2 | 2,499 | 2,595 | 0.0 | 0.0 | 0.0 | 0.0 | 2.0 | - |
| NE Paso Robles (SLO-3) | 9/1/26 | 0.185 | 1.21 | 5.81 | 0.00 | 0 | 11.1 | 13.2 | 2,670 | 2,883 | 0.0 | 0.0 | 0.0 | 0.0 | 1.5 | - |
| Cross Canyon Rd (SLO-4) | 9/1/26 | 0.179 | 1.19 | 5.81 | 0.00 | 20 | 11.6 | 13.6 | 2,704 | 2,894 | 0.0 | 0.0 | 0.0 | 0.0 | 1.0 | - |
| Willow Creek (SLO-5) | 9/1/26 | 0.160 | 1.08 | 0.32 | 0.00 | 70 | 7.5 | 7.1 | 2,161 | 2,091 | 0.0 | 0.0 | 1.4 | 1.4 | 4.0 | - |
| Shell Creek Rd (SLO-6) | 9/1/26 | 0.192 | 1.35 | 6.62 | 0.00 | 0 | 12.1 | 12.9 | 2,939 | 2,701 | 0.0 | 0.0 | 0.7 | 0.7 | 3.0 | - |
| South Shandon (SLO-7) | 9/1/26 | 0.183 | 1.25 | 6.15 | 0.00 | 20 | 11.3 | 12.4 | 2,768 | 2,739 | 0.0 | 0.0 | 0.1 | 0.1 | 3.0 | - |
| South Creston (SLO-8) | 9/1/26 | 0.181 | 1.21 | 5.73 | 0.00 | 20 | 11.7 | 13.0 | 2,632 | 2,592 | 0.0 | 0.0 | 0.0 | 0.0 | 1.5 | - |
| Pozo Rd (SLO-9) | 9/1/26 | 0.164 | 1.01 | 1.87 | 0.00 | 20 | 8.8 | 7.1 | 2,057 | 1,858 | 0.0 | 0.0 | 2.1 | 2.1 | 4.0 | - |
| Experimental Station (SLO-10) | 9/1/26 | 0.170 | 1.19 | 5.07 | 0.00 | 0 | 11.4 | 13.9 | 2,537 | 2,806 | 0.0 | 0.0 | 0.0 | 0.0 | 1.0 | - |
| Vineyard Drive (SLO-11) | 9/1/26 | 0.157 | 1.06 | 1.33 | 0.00 | 40 | 8.2 | 6.5 | 2,248 | 2,051 | 0.0 | 0.0 | 3.4 | 3.4 | 4.0 | - |
| Von Dollen Road (SLO-12) | 9/1/26 | 0.177 | 1.16 | 5.23 | 0.00 | 0 | 10.5 | 12.3 | 2,575 | 2,757 | 0.0 | 0.0 | 0.0 | 0.0 | 1.5 | - |
| Templeton Gap West (SLO-13) | 9/1/26 | 0.169 | 1.06 | 5.10 | 0.00 | 0 | 9.7 | 8.7 | 2,207 | 2,176 | 0.0 | 0.0 | 1.6 | 1.6 | 3.5 | - |
| Orcutt Road (SLO-14) | 9/1/26 | 0.172 | 1.03 | 4.98 | 0.00 | 60 | 12.0 | 12.7 | 1,811 | 1,982 | 0.0 | 0.0 | 0.0 | 0.0 | 1.0 | - |
| Tiffany Ranch Rd (SLO-15) | 9/1/26 | 0.166 | 0.92 | 7.07 | 0.00 | 90 | 12.3 | 11.5 | 1,831 | 1,886 | 0.0 | 0.0 | 0.0 | 0.0 | 1.5 | - |
| Chimney Rock Rd (SLO-16) | 9/1/26 | 0.163 | 1.09 | 2.43 | 0.00 | 40 | 8.3 | 9.9 | 2,445 | 2,442 | 0.0 | 0.0 | 0.0 | 0.0 | 2.5 | - |
| Nipomo Mesa (SLO-17) | 9/1/26 | 0.167 | 1.03 | 1.49 | 0.00 | 90 | 11.5 | 10.2 | 1,845 | 1,893 | 0.0 | 0.0 | 0.0 | 0.0 | 1.0 | - |
| Morro Creek (SLO-18) | 9/1/26 | 0.148 | 0.82 | 0.00 | 0.00 | 0 | 10.1 | 8.9 | 1,295 | 1,284 | 0.0 | 0.0 | 0.0 | 0.0 | 1.0 | - |
| Paso Robles Airport ETo | 9/1/26 | 0.176 | 1.17 | 4.53 | 0.00 | 10 | 10.1 | 10.8 | 2,452 | 2,598 | 0.0 | 0.0 | 0.0 | 0.0 | -5.5 | 0 |
| West Shandon (SLO-20) | 9/1/26 | 0.183 | 1.28 | 6.26 | 0.00 | 20 | 12.0 | 13.9 | 2,867 | 2,909 | 0.0 | 0.0 | 0.0 | 0.0 | -8.0 | 0 |
| West San Miguel (SLO-21) | 9/1/26 | 0.179 | 1.22 | 6.32 | 0.00 | 60 | 12.7 | - | 2,616 | - | 0.0 | 0.0 | 0.0 | - | - | - |
| Adelaida Road (SLO-22) | 9/1/26 | 0.161 | 1.13 | 3.98 | 0.00 | 0 | 10.0 | - | 2,474 | - | 0.0 | 0.0 | 0.0 | - | - | - |
| East Whitley Gardens (SLO-23) | 9/1/26 | 0.186 | 1.24 | 5.38 | 0.00 | 0 | 10.5 | - | 2,581 | - | 0.0 | 0.0 | 0.0 | - | - | - |
| Estrella Road (SLO-24) | 9/1/26 | 0.186 | 1.17 | 5.10 | 0.00 | 0 | 10.8 | - | 2,575 | - | 0.0 | 0.0 | 0.0 | - | - | - |
| Camatta Creek (SLO-25) | 9/1/26 | 0.178 | 1.15 | 5.89 | 0.00 | 60 | 11.2 | - | 2,724 | - | 0.0 | 0.0 | 0.0 | - | - | - |
| East-Shandon (SLO-26) | 9/1/26 | 0.188 | 1.24 | 5.74 | 0.00 | 10 | 10.9 | - | 2,644 | - | 0.0 | 0.0 | 0.0 | - | - | - |
| Templeton East (SLO-27) | 9/1/26 | 0.171 | 1.10 | 4.80 | 0.00 | 30 | 10.6 | - | 2,441 | - | 0.0 | 0.0 | 0.0 | - | - | - |
| Ground Squirrel Hollow (SLO-28) | 9/1/26 | 0.183 | 1.68 | 4.78 | 0.00 | 0 | 10.2 | - | 2,529 | - | 0.0 | 0.0 | 0.0 | - | - | - |
| East Paso Robles (SLO-29) | 9/1/26 | 0.183 | 1.23 | 4.58 | 0.00 | 0 | 10.3 | - | 2,480 | - | 0.0 | 0.0 | 0.0 | - | - | - |
| Max | 0.192 | 1.68 | 7.07 | 0.00 | - | 12.7 | 13.9 | - | - | 0.0 | 0.0 | 3.4 | 3.4 | 4.0 | 0 | |
| Avg | - | - | 4.56 | 0.00 | - | 10.6 | 11.1 | - | - | 0.0 | 0.0 | 0.3 | 0.5 | 1.2 | 0 | |
| Min | 0.148 | 0.82 | 0.00 | 0.00 | - | 7.5 | 6.5 | - | - | 0.0 | 0.0 | 0.0 | 0.0 | -8.0 | 0 |